createdAt,value
2019-06-25T00:01:52.627Z,24.00
2019-06-25T00:14:59.824Z,24.00
2019-06-25T00:28:07.313Z,24.00
2019-06-25T00:41:14.515Z,23.90
2019-06-25T00:54:21.711Z,23.90
2019-06-25T01:07:28.908Z,23.90
2019-06-25T01:20:52.461Z,23.90
2019-06-25T01:34:15.315Z,23.80
2019-06-25T01:47:38.119Z,23.80
2019-06-25T02:01:01.186Z,23.70
2019-06-25T02:40:31.718Z,23.60
2019-06-25T02:53:38.874Z,23.60
2019-06-25T03:06:46.271Z,23.60
2019-06-25T03:19:53.465Z,23.50
2019-06-25T03:33:00.664Z,23.50
2019-06-25T03:46:07.887Z,23.40
2019-06-25T03:59:31.601Z,23.40
2019-06-25T04:12:54.640Z,23.40
2019-06-25T04:26:17.183Z,23.40
2019-06-25T04:52:41.549Z,23.30
2019-06-25T05:05:48.878Z,23.30
2019-06-25T05:18:56.138Z,23.40
2019-06-25T05:32:03.394Z,23.40
2019-06-25T05:45:10.599Z,23.40
2019-06-25T05:58:17.753Z,23.50
2019-06-25T06:11:41.420Z,23.50
2019-06-25T06:25:04.251Z,23.60
2019-06-25T06:38:27.285Z,23.70
2019-06-25T06:51:49.872Z,23.70
2019-06-25T07:05:12.720Z,23.80
2019-06-25T07:18:35.500Z,23.80
2019-06-25T07:31:58.420Z,23.80
2019-06-25T07:45:21.151Z,23.90
2019-06-25T07:58:43.946Z,23.90
2019-06-25T08:12:07.255Z,24.00
2019-06-25T08:25:29.569Z,24.10
2019-06-25T08:38:52.433Z,24.10
2019-06-25T08:52:15.195Z,24.10
2019-06-25T09:05:38.219Z,24.20
2019-06-25T09:19:00.996Z,24.20
2019-06-25T09:45:58.411Z,24.30
2019-06-25T09:59:05.623Z,24.30
2019-06-25T10:12:12.861Z,24.30
2019-06-25T10:25:20.126Z,24.30
2019-06-25T10:38:27.536Z,24.20
2019-06-25T10:51:51.366Z,24.20
2019-06-25T11:05:14.180Z,24.30
2019-06-25T11:18:36.998Z,24.30
2019-06-25T11:31:59.818Z,24.30
2019-06-25T11:58:24.492Z,24.40
2019-06-25T12:11:31.664Z,24.40
2019-06-25T12:24:39.003Z,24.40
2019-06-25T12:37:46.363Z,24.40
2019-06-25T12:50:53.697Z,24.40
2019-06-25T13:04:17.599Z,24.40
2019-06-25T13:17:40.487Z,24.50
2019-06-25T13:44:05.079Z,24.50
2019-06-25T13:57:12.396Z,24.50
2019-06-25T14:23:24.383Z,24.50
2019-06-25T14:36:31.709Z,24.60
2019-06-25T14:49:39.105Z,24.60
2019-06-25T15:02:46.589Z,24.60
2019-06-25T15:15:54.019Z,24.60
2019-06-25T15:29:17.509Z,24.60
2019-06-25T15:42:40.331Z,24.60
2019-06-25T16:09:05.091Z,24.70
2019-06-25T16:22:12.467Z,24.70
2019-06-25T16:35:20.124Z,24.70
2019-06-25T16:48:29.353Z,24.70
2019-06-25T17:01:51.805Z,24.80
2019-06-25T17:15:14.689Z,24.70
2019-06-25T17:28:37.628Z,24.70
2019-06-25T17:42:00.158Z,24.70
2019-06-25T17:55:23.058Z,24.80
2019-06-25T18:08:45.843Z,24.80
2019-06-25T18:22:08.629Z,24.80
2019-06-25T18:35:31.473Z,24.90
2019-06-25T18:48:54.243Z,24.90
2019-06-25T19:02:17.095Z,24.90
2019-06-25T19:15:39.918Z,25.00
2019-06-25T19:29:02.838Z,25.00
2019-06-25T19:42:26.489Z,25.00
2019-06-25T19:55:48.375Z,25.10
2019-06-25T20:22:13.140Z,25.20
2019-06-25T20:35:21.720Z,25.20
2019-06-25T20:48:47.088Z,25.10
2019-06-25T21:02:09.776Z,25.20
2019-06-25T21:15:32.415Z,25.10
2019-06-25T21:28:55.297Z,25.20
2019-06-25T21:42:18.050Z,25.30
2019-06-25T21:55:40.904Z,25.20
2019-06-25T22:09:03.770Z,25.30
2019-06-25T22:22:26.527Z,25.30
2019-06-25T22:35:49.352Z,25.40
2019-06-25T22:49:12.121Z,25.40
2019-06-25T23:02:34.928Z,25.30
2019-06-25T23:15:57.786Z,25.20
2019-06-25T23:43:09.291Z,25.20
2019-06-25T23:56:03.139Z,25.20
